createdAt,value
2022-09-12T00:01:24.143Z,7.80
2022-09-12T00:07:25.670Z,7.47
2022-09-12T00:13:27.118Z,8.33
2022-09-12T00:19:29.062Z,8.32
2022-09-12T00:25:31.266Z,8.13
2022-09-12T00:31:32.923Z,8.40
2022-09-12T00:37:34.643Z,8.27
2022-09-12T00:43:37.846Z,8.53
2022-09-12T00:49:43.904Z,8.50
2022-09-12T00:55:49.028Z,8.37
2022-09-12T01:01:50.944Z,8.90
2022-09-12T01:07:53.058Z,8.38
2022-09-12T01:13:54.549Z,8.13
2022-09-12T01:20:15.572Z,8.35
2022-09-12T01:26:26.342Z,8.40
2022-09-12T01:32:46.422Z,7.75
2022-09-12T01:38:59.292Z,8.65
2022-09-12T01:45:09.774Z,8.50
2022-09-12T01:51:20.299Z,8.48
2022-09-12T01:57:38.108Z,8.47
2022-09-12T02:03:41.406Z,8.88
2022-09-12T02:09:46.364Z,9.00
2022-09-12T02:15:49.941Z,9.13
2022-09-12T02:21:55.709Z,9.50
2022-09-12T02:28:00.858Z,8.73
2022-09-12T02:34:19.875Z,9.50
2022-09-12T02:40:21.717Z,9.43
2022-09-12T02:46:25.970Z,9.07
2022-09-12T02:52:28.499Z,9.98
2022-09-12T02:58:31.288Z,10.07
2022-09-12T03:04:44.579Z,10.10
2022-09-12T03:10:56.244Z,9.80
2022-09-12T03:17:16.590Z,9.63
2022-09-12T03:23:25.901Z,9.85
2022-09-12T03:29:27.959Z,10.23
2022-09-12T03:35:30.670Z,9.35
2022-09-12T03:41:32.104Z,10.07
2022-09-12T03:47:33.568Z,10.10
2022-09-12T03:53:35.160Z,9.75
2022-09-12T03:59:37.763Z,9.17
2022-09-12T04:05:39.263Z,10.02
2022-09-12T04:11:40.712Z,10.15
2022-09-12T04:17:42.229Z,10.27
2022-09-12T04:23:44.041Z,9.55
2022-09-12T04:29:45.472Z,10.53
2022-09-12T04:35:47.122Z,10.57
2022-09-12T04:41:48.580Z,10.50
2022-09-12T04:47:50.025Z,10.57
2022-09-12T04:53:52.908Z,10.20
2022-09-12T04:59:54.356Z,10.17
2022-09-12T05:05:56.519Z,10.57
2022-09-12T05:12:04.246Z,10.60
2022-09-12T05:18:06.274Z,10.73
2022-09-12T05:24:07.691Z,11.20
2022-09-12T05:30:09.617Z,10.50
2022-09-12T05:36:12.375Z,12.45
2022-09-12T05:42:14.256Z,11.93
2022-09-12T05:48:15.888Z,11.77
2022-09-12T05:54:19.319Z,10.82
2022-09-12T06:00:20.922Z,11.27
2022-09-12T06:06:23.491Z,12.13
2022-09-12T06:12:26.704Z,11.45
2022-09-12T06:18:28.170Z,11.67
2022-09-12T06:24:29.604Z,11.57
2022-09-12T06:30:31.094Z,12.43
2022-09-12T06:36:40.543Z,12.20
2022-09-12T06:42:42.004Z,11.48
2022-09-12T06:48:43.565Z,11.33
2022-09-12T06:54:46.164Z,11.25
2022-09-12T07:00:47.624Z,10.80
2022-09-12T07:06:49.111Z,10.90
2022-09-12T07:12:50.540Z,10.88
2022-09-12T07:18:53.039Z,10.90
2022-09-12T07:24:55.708Z,10.73
2022-09-12T07:30:57.344Z,11.03
2022-09-12T07:36:58.820Z,10.35
2022-09-12T07:43:00.249Z,10.82
2022-09-12T07:49:01.749Z,10.17
2022-09-12T07:55:03.464Z,10.80
2022-09-12T08:01:05.785Z,9.63
2022-09-12T08:07:07.464Z,10.23
2022-09-12T08:13:10.795Z,9.85
2022-09-12T08:19:12.487Z,8.63
2022-09-12T08:25:13.974Z,8.77
2022-09-12T08:31:16.700Z,8.53
2022-09-12T08:37:18.160Z,6.70
2022-09-12T08:43:29.523Z,5.43
2022-09-12T08:49:33.801Z,5.63
2022-09-12T08:55:40.349Z,5.32
2022-09-12T09:01:43.631Z,4.70
2022-09-12T09:08:00.311Z,5.40
2022-09-12T09:14:49.451Z,5.38
2022-09-12T09:20:52.920Z,5.30
2022-09-12T09:27:14.265Z,4.82
2022-09-12T09:33:27.928Z,5.50
2022-09-12T09:39:48.298Z,5.53
2022-09-12T09:45:50.316Z,5.00
2022-09-12T09:51:51.967Z,4.60
2022-09-12T09:57:53.628Z,4.50
2022-09-12T10:03:55.778Z,5.17
2022-09-12T10:10:14.631Z,4.85
2022-09-12T10:16:24.158Z,4.60
2022-09-12T10:22:27.379Z,4.20
2022-09-12T10:28:34.387Z,3.92
2022-09-12T10:34:38.074Z,3.00
2022-09-12T10:40:40.726Z,3.00
2022-09-12T10:46:42.223Z,3.47
2022-09-12T10:52:43.756Z,3.10
2022-09-12T10:58:55.572Z,3.20
2022-09-12T11:05:09.249Z,3.43
2022-09-12T11:11:29.349Z,3.50
2022-09-12T11:17:38.691Z,3.03
2022-09-12T11:23:59.353Z,3.23
2022-09-12T11:30:03.753Z,2.92
2022-09-12T11:36:07.902Z,2.67
2022-09-12T11:42:22.610Z,2.92
2022-09-12T11:48:45.425Z,2.80
2022-09-12T11:54:53.757Z,3.20
2022-09-12T12:00:57.644Z,3.30
2022-09-12T12:07:04.508Z,3.17
2022-09-12T12:13:27.989Z,3.30
2022-09-12T12:19:34.208Z,3.45
2022-09-12T12:25:40.022Z,3.30
2022-09-12T12:31:59.496Z,3.33
2022-09-12T12:38:01.464Z,3.97
2022-09-12T12:44:22.914Z,3.38
2022-09-12T12:50:29.255Z,3.10
2022-09-12T12:56:34.219Z,3.60
2022-09-12T13:02:38.384Z,3.05
2022-09-12T13:08:43.610Z,3.30
2022-09-12T13:14:50.097Z,3.42
2022-09-12T13:20:51.568Z,3.08
2022-09-12T13:26:53.530Z,3.47
2022-09-12T13:32:58.084Z,3.13
2022-09-12T13:39:16.413Z,3.20
2022-09-12T13:45:25.114Z,3.60
2022-09-12T13:51:28.807Z,3.40
2022-09-12T13:57:37.485Z,3.47
2022-09-12T14:03:59.109Z,3.50
2022-09-12T14:10:01.746Z,3.40
2022-09-12T14:16:03.233Z,3.35
2022-09-12T14:22:04.754Z,3.20
2022-09-12T14:28:06.328Z,3.30
2022-09-12T14:34:14.978Z,2.90
2022-09-12T14:40:21.075Z,3.80
2022-09-12T14:46:34.712Z,3.17
2022-09-12T14:52:36.219Z,3.38
2022-09-12T14:58:38.431Z,3.30
2022-09-12T15:04:40.731Z,3.50
2022-09-12T15:10:42.240Z,3.50
2022-09-12T15:16:43.674Z,4.03
2022-09-12T15:22:45.128Z,3.50
2022-09-12T15:28:46.593Z,3.10
2022-09-12T15:34:47.993Z,4.10
2022-09-12T15:40:52.751Z,2.90
2022-09-12T15:46:54.245Z,3.70
2022-09-12T15:52:55.927Z,2.97
2022-09-12T15:58:59.838Z,3.10
2022-09-12T16:05:01.928Z,3.13
2022-09-12T16:11:05.215Z,3.60
2022-09-12T16:17:06.931Z,3.28
2022-09-12T16:23:12.481Z,3.50
2022-09-12T16:29:14.460Z,3.67
2022-09-12T16:35:15.956Z,3.35
2022-09-12T16:41:18.154Z,3.20
2022-09-12T16:47:19.762Z,3.40
2022-09-12T16:53:21.210Z,3.38
2022-09-12T16:59:22.626Z,3.43
2022-09-12T17:05:24.277Z,4.40
2022-09-12T17:11:30.971Z,4.10
2022-09-12T17:17:32.388Z,3.40
2022-09-12T17:23:33.887Z,2.97
2022-09-12T17:29:37.012Z,3.20
2022-09-12T17:35:38.887Z,3.22
2022-09-12T17:41:41.693Z,3.50
2022-09-12T17:47:43.129Z,3.30
2022-09-12T17:53:44.655Z,3.00
2022-09-12T17:59:46.196Z,4.80
2022-09-12T18:05:48.112Z,4.07
2022-09-12T18:11:49.924Z,4.60
2022-09-12T18:17:51.628Z,3.88
2022-09-12T18:23:55.777Z,3.40
2022-09-12T18:30:17.545Z,3.40
2022-09-12T18:36:19.475Z,4.00
2022-09-12T18:42:26.665Z,4.30
2022-09-12T18:48:30.066Z,6.10
2022-09-12T18:54:33.265Z,7.68
2022-09-12T19:00:35.318Z,5.10
2022-09-12T19:06:38.572Z,4.38
2022-09-12T19:12:40.309Z,4.80
2022-09-12T19:18:42.256Z,4.80
2022-09-12T19:24:43.861Z,4.35
2022-09-12T19:30:48.701Z,5.47
2022-09-12T19:36:51.901Z,4.68
2022-09-12T19:42:54.035Z,4.40
2022-09-12T19:48:55.903Z,4.20
2022-09-12T19:54:57.651Z,4.30
2022-09-12T20:01:13.089Z,5.07
2022-09-12T20:07:14.685Z,5.22
2022-09-12T20:13:16.097Z,5.40
2022-09-12T20:19:17.769Z,5.03
2022-09-12T20:25:20.084Z,4.60
2022-09-12T20:31:21.695Z,5.00
2022-09-12T20:37:23.990Z,4.40
2022-09-12T20:43:25.505Z,4.50
2022-09-12T20:49:26.947Z,4.78
2022-09-12T20:55:28.425Z,4.38
2022-09-12T21:01:31.375Z,4.60
2022-09-12T21:07:32.884Z,4.68
2022-09-12T21:13:34.610Z,4.40
2022-09-12T21:19:36.205Z,5.72
2022-09-12T21:25:37.764Z,8.20
2022-09-12T21:31:39.262Z,5.87
2022-09-12T21:37:40.714Z,5.07
2022-09-12T21:43:42.634Z,5.07
2022-09-12T21:49:44.132Z,5.15
2022-09-12T21:55:45.541Z,5.20
2022-09-12T22:01:47.263Z,5.07
2022-09-12T22:07:48.748Z,4.95
2022-09-12T22:13:50.316Z,5.10
2022-09-12T22:19:51.793Z,4.88
2022-09-12T22:25:54.432Z,4.97
2022-09-12T22:31:55.861Z,4.47
2022-09-12T22:37:57.326Z,4.40
2022-09-12T22:43:58.828Z,4.50
2022-09-12T22:50:00.342Z,4.50
2022-09-12T22:56:02.235Z,4.82
2022-09-12T23:02:05.020Z,4.53
2022-09-12T23:08:06.451Z,4.65
2022-09-12T23:14:07.908Z,4.90
2022-09-12T23:20:09.367Z,4.80
2022-09-12T23:26:12.581Z,4.97
2022-09-12T23:32:13.984Z,5.50
2022-09-12T23:38:15.876Z,5.57
2022-09-12T23:44:17.506Z,5.77
2022-09-12T23:50:19.008Z,5.90
2022-09-12T23:56:22.052Z,6.20
